sensor_id;sensor_type;location;lat;lon;timestamp;P1;durP1;ratioP1;P2;durP2;ratioP2
80758;SDS011;70150;45.582;10.178;2023-06-04T00:01:57;6.68;;;4.25;;
80758;SDS011;70150;45.582;10.178;2023-06-04T00:04:24;5.53;;;4.10;;
80758;SDS011;70150;45.582;10.178;2023-06-04T00:06:50;4.90;;;3.63;;
80758;SDS011;70150;45.582;10.178;2023-06-04T00:09:18;5.15;;;3.85;;
80758;SDS011;70150;45.582;10.178;2023-06-04T00:11:44;6.88;;;3.95;;
80758;SDS011;70150;45.582;10.178;2023-06-04T00:14:10;6.63;;;4.05;;
80758;SDS011;70150;45.582;10.178;2023-06-04T00:16:36;5.70;;;3.83;;
80758;SDS011;70150;45.582;10.178;2023-06-04T00:19:02;5.38;;;4.05;;
80758;SDS011;70150;45.582;10.178;2023-06-04T00:21:28;5.95;;;3.65;;
80758;SDS011;70150;45.582;10.178;2023-06-04T00:23:54;4.60;;;3.50;;
80758;SDS011;70150;45.582;10.178;2023-06-04T00:26:19;8.38;;;3.90;;
80758;SDS011;70150;45.582;10.178;2023-06-04T00:28:45;7.07;;;3.70;;
80758;SDS011;70150;45.582;10.178;2023-06-04T00:31:10;5.40;;;3.35;;
80758;SDS011;70150;45.582;10.178;2023-06-04T00:33:38;5.10;;;3.33;;
80758;SDS011;70150;45.582;10.178;2023-06-04T00:36:04;5.00;;;3.60;;
80758;SDS011;70150;45.582;10.178;2023-06-04T00:38:30;5.65;;;3.60;;
80758;SDS011;70150;45.582;10.178;2023-06-04T00:40:55;6.65;;;4.00;;
80758;SDS011;70150;45.582;10.178;2023-06-04T00:43:21;6.72;;;3.65;;
80758;SDS011;70150;45.582;10.178;2023-06-04T00:45:50;5.43;;;3.53;;
80758;SDS011;70150;45.582;10.178;2023-06-04T00:48:17;9.23;;;3.47;;
80758;SDS011;70150;45.582;10.178;2023-06-04T00:50:43;6.15;;;4.05;;
80758;SDS011;70150;45.582;10.178;2023-06-04T00:53:09;7.70;;;4.15;;
80758;SDS011;70150;45.582;10.178;2023-06-04T00:55:35;6.20;;;4.20;;
80758;SDS011;70150;45.582;10.178;2023-06-04T00:58:01;7.18;;;4.38;;
80758;SDS011;70150;45.582;10.178;2023-06-04T01:00:29;5.35;;;4.03;;
80758;SDS011;70150;45.582;10.178;2023-06-04T01:02:55;10.27;;;4.13;;
80758;SDS011;70150;45.582;10.178;2023-06-04T01:07:55;8.52;;;5.07;;
80758;SDS011;70150;45.582;10.178;2023-06-04T01:10:22;10.73;;;5.30;;
80758;SDS011;70150;45.582;10.178;2023-06-04T01:12:48;8.98;;;5.40;;
80758;SDS011;70150;45.582;10.178;2023-06-04T01:15:13;9.57;;;5.55;;
80758;SDS011;70150;45.582;10.178;2023-06-04T01:17:40;8.57;;;6.22;;
80758;SDS011;70150;45.582;10.178;2023-06-04T01:25:12;9.30;;;5.63;;
80758;SDS011;70150;45.582;10.178;2023-06-04T01:27:45;9.13;;;5.32;;
80758;SDS011;70150;45.582;10.178;2023-06-04T01:30:15;7.03;;;5.28;;
80758;SDS011;70150;45.582;10.178;2023-06-04T01:32:42;9.70;;;5.70;;
80758;SDS011;70150;45.582;10.178;2023-06-04T01:35:08;9.27;;;6.05;;
80758;SDS011;70150;45.582;10.178;2023-06-04T01:37:36;7.50;;;5.78;;
80758;SDS011;70150;45.582;10.178;2023-06-04T01:40:02;8.43;;;6.13;;
80758;SDS011;70150;45.582;10.178;2023-06-04T01:42:28;7.97;;;5.90;;
80758;SDS011;70150;45.582;10.178;2023-06-04T01:44:53;8.27;;;6.43;;
80758;SDS011;70150;45.582;10.178;2023-06-04T01:47:19;8.60;;;6.18;;
80758;SDS011;70150;45.582;10.178;2023-06-04T01:49:45;8.70;;;6.15;;
80758;SDS011;70150;45.582;10.178;2023-06-04T01:52:11;10.73;;;6.25;;
80758;SDS011;70150;45.582;10.178;2023-06-04T01:54:36;8.73;;;5.88;;
80758;SDS011;70150;45.582;10.178;2023-06-04T01:57:03;7.82;;;5.93;;
80758;SDS011;70150;45.582;10.178;2023-06-04T01:59:30;9.35;;;6.63;;
80758;SDS011;70150;45.582;10.178;2023-06-04T02:01:58;7.75;;;5.70;;
80758;SDS011;70150;45.582;10.178;2023-06-04T02:04:24;8.80;;;6.18;;
80758;SDS011;70150;45.582;10.178;2023-06-04T02:06:50;8.82;;;5.70;;
80758;SDS011;70150;45.582;10.178;2023-06-04T02:09:16;9.38;;;5.95;;
80758;SDS011;70150;45.582;10.178;2023-06-04T02:11:41;9.02;;;5.97;;
80758;SDS011;70150;45.582;10.178;2023-06-04T02:14:07;8.57;;;6.15;;
80758;SDS011;70150;45.582;10.178;2023-06-04T02:16:32;9.50;;;6.28;;
80758;SDS011;70150;45.582;10.178;2023-06-04T02:19:00;9.38;;;5.57;;
80758;SDS011;70150;45.582;10.178;2023-06-04T02:21:28;8.35;;;5.30;;
80758;SDS011;70150;45.582;10.178;2023-06-04T02:23:56;6.35;;;4.95;;
80758;SDS011;70150;45.582;10.178;2023-06-04T02:26:22;8.45;;;5.20;;
80758;SDS011;70150;45.582;10.178;2023-06-04T02:28:48;7.40;;;5.30;;
80758;SDS011;70150;45.582;10.178;2023-06-04T02:31:14;7.40;;;5.30;;
80758;SDS011;70150;45.582;10.178;2023-06-04T02:33:42;9.73;;;5.60;;
80758;SDS011;70150;45.582;10.178;2023-06-04T02:36:08;9.70;;;5.68;;
80758;SDS011;70150;45.582;10.178;2023-06-04T02:38:34;9.02;;;5.65;;
80758;SDS011;70150;45.582;10.178;2023-06-04T02:41:00;8.07;;;5.50;;
80758;SDS011;70150;45.582;10.178;2023-06-04T02:43:25;8.43;;;5.82;;
80758;SDS011;70150;45.582;10.178;2023-06-04T02:45:51;8.48;;;5.85;;
80758;SDS011;70150;45.582;10.178;2023-06-04T02:48:16;10.40;;;5.72;;
80758;SDS011;70150;45.582;10.178;2023-06-04T02:50:42;7.68;;;5.25;;
80758;SDS011;70150;45.582;10.178;2023-06-04T02:53:07;7.53;;;5.15;;
80758;SDS011;70150;45.582;10.178;2023-06-04T02:55:33;10.52;;;5.97;;
80758;SDS011;70150;45.582;10.178;2023-06-04T02:57:59;9.43;;;6.05;;
80758;SDS011;70150;45.582;10.178;2023-06-04T03:00:25;8.30;;;5.10;;
80758;SDS011;70150;45.582;10.178;2023-06-04T03:02:51;8.45;;;5.40;;
80758;SDS011;70150;45.582;10.178;2023-06-04T03:05:17;7.82;;;5.35;;
80758;SDS011;70150;45.582;10.178;2023-06-04T03:07:43;7.18;;;5.22;;
80758;SDS011;70150;45.582;10.178;2023-06-04T03:10:11;7.50;;;5.40;;
80758;SDS011;70150;45.582;10.178;2023-06-04T03:12:37;7.22;;;5.38;;
80758;SDS011;70150;45.582;10.178;2023-06-04T03:15:03;9.48;;;5.57;;
80758;SDS011;70150;45.582;10.178;2023-06-04T03:17:32;7.45;;;5.22;;
80758;SDS011;70150;45.582;10.178;2023-06-04T03:20:00;8.68;;;5.88;;
80758;SDS011;70150;45.582;10.178;2023-06-04T03:22:26;8.45;;;5.15;;
80758;SDS011;70150;45.582;10.178;2023-06-04T03:24:53;9.95;;;5.40;;
80758;SDS011;70150;45.582;10.178;2023-06-04T03:27:19;8.50;;;5.47;;
80758;SDS011;70150;45.582;10.178;2023-06-04T03:29:45;7.43;;;5.32;;
80758;SDS011;70150;45.582;10.178;2023-06-04T03:32:11;9.20;;;5.80;;
80758;SDS011;70150;45.582;10.178;2023-06-04T03:34:37;7.68;;;5.32;;
80758;SDS011;70150;45.582;10.178;2023-06-04T03:37:03;8.43;;;5.75;;
80758;SDS011;70150;45.582;10.178;2023-06-04T03:39:29;8.52;;;5.68;;
80758;SDS011;70150;45.582;10.178;2023-06-04T03:41:55;7.80;;;5.95;;
80758;SDS011;70150;45.582;10.178;2023-06-04T03:44:21;10.60;;;5.93;;
80758;SDS011;70150;45.582;10.178;2023-06-04T03:46:47;8.75;;;5.80;;
80758;SDS011;70150;45.582;10.178;2023-06-04T03:49:15;8.75;;;5.53;;
80758;SDS011;70150;45.582;10.178;2023-06-04T03:51:42;8.68;;;5.80;;
80758;SDS011;70150;45.582;10.178;2023-06-04T03:54:08;9.93;;;5.32;;
80758;SDS011;70150;45.582;10.178;2023-06-04T03:56:33;8.73;;;5.82;;
80758;SDS011;70150;45.582;10.178;2023-06-04T03:58:59;8.48;;;5.40;;
80758;SDS011;70150;45.582;10.178;2023-06-04T04:01:25;7.07;;;5.28;;
80758;SDS011;70150;45.582;10.178;2023-06-04T04:03:52;9.45;;;5.50;;
80758;SDS011;70150;45.582;10.178;2023-06-04T04:06:18;8.77;;;5.35;;
80758;SDS011;70150;45.582;10.178;2023-06-04T04:08:44;8.65;;;5.75;;
80758;SDS011;70150;45.582;10.178;2023-06-04T04:11:12;8.30;;;5.60;;
80758;SDS011;70150;45.582;10.178;2023-06-04T04:13:38;9.10;;;5.72;;
80758;SDS011;70150;45.582;10.178;2023-06-04T04:16:06;11.20;;;6.10;;
80758;SDS011;70150;45.582;10.178;2023-06-04T04:18:33;8.88;;;5.40;;
80758;SDS011;70150;45.582;10.178;2023-06-04T04:21:00;9.10;;;6.07;;
80758;SDS011;70150;45.582;10.178;2023-06-04T04:23:26;8.35;;;5.78;;
80758;SDS011;70150;45.582;10.178;2023-06-04T04:25:52;9.43;;;6.43;;
80758;SDS011;70150;45.582;10.178;2023-06-04T04:28:18;8.38;;;5.95;;
80758;SDS011;70150;45.582;10.178;2023-06-04T04:30:45;7.47;;;5.57;;
80758;SDS011;70150;45.582;10.178;2023-06-04T04:33:14;8.18;;;6.03;;
80758;SDS011;70150;45.582;10.178;2023-06-04T04:35:42;8.27;;;5.75;;
80758;SDS011;70150;45.582;10.178;2023-06-04T04:38:07;11.57;;;6.97;;
80758;SDS011;70150;45.582;10.178;2023-06-04T04:40:34;12.32;;;7.70;;
80758;SDS011;70150;45.582;10.178;2023-06-04T04:43:00;10.90;;;7.03;;
80758;SDS011;70150;45.582;10.178;2023-06-04T04:45:26;10.35;;;6.43;;
80758;SDS011;70150;45.582;10.178;2023-06-04T04:47:52;8.82;;;5.82;;
80758;SDS011;70150;45.582;10.178;2023-06-04T04:50:17;8.90;;;6.00;;
80758;SDS011;70150;45.582;10.178;2023-06-04T04:52:43;9.73;;;6.22;;
80758;SDS011;70150;45.582;10.178;2023-06-04T04:55:08;9.88;;;6.15;;
80758;SDS011;70150;45.582;10.178;2023-06-04T04:57:34;9.93;;;6.75;;
80758;SDS011;70150;45.582;10.178;2023-06-04T05:00:01;13.55;;;7.03;;
80758;SDS011;70150;45.582;10.178;2023-06-04T05:02:30;9.82;;;7.03;;
80758;SDS011;70150;45.582;10.178;2023-06-04T05:04:55;11.23;;;6.85;;
80758;SDS011;70150;45.582;10.178;2023-06-04T05:07:21;9.52;;;6.22;;
80758;SDS011;70150;45.582;10.178;2023-06-04T05:09:48;8.57;;;5.80;;
80758;SDS011;70150;45.582;10.178;2023-06-04T05:12:14;8.57;;;5.40;;
80758;SDS011;70150;45.582;10.178;2023-06-04T05:14:39;9.50;;;5.72;;
80758;SDS011;70150;45.582;10.178;2023-06-04T05:17:06;9.13;;;5.88;;
80758;SDS011;70150;45.582;10.178;2023-06-04T05:19:35;9.23;;;5.60;;
80758;SDS011;70150;45.582;10.178;2023-06-04T05:22:02;8.35;;;5.45;;
80758;SDS011;70150;45.582;10.178;2023-06-04T05:24:28;11.63;;;5.47;;
80758;SDS011;70150;45.582;10.178;2023-06-04T05:26:54;7.03;;;5.18;;
80758;SDS011;70150;45.582;10.178;2023-06-04T05:29:22;9.35;;;5.05;;
80758;SDS011;70150;45.582;10.178;2023-06-04T05:31:47;8.45;;;5.38;;
80758;SDS011;70150;45.582;10.178;2023-06-04T05:34:13;6.55;;;4.93;;
80758;SDS011;70150;45.582;10.178;2023-06-04T05:36:41;8.38;;;4.70;;
80758;SDS011;70150;45.582;10.178;2023-06-04T05:39:08;9.27;;;4.57;;
80758;SDS011;70150;45.582;10.178;2023-06-04T05:41:35;6.47;;;4.35;;
80758;SDS011;70150;45.582;10.178;2023-06-04T05:44:01;5.28;;;4.03;;
80758;SDS011;70150;45.582;10.178;2023-06-04T05:46:27;6.70;;;3.95;;
80758;SDS011;70150;45.582;10.178;2023-06-04T05:48:53;6.60;;;3.95;;
80758;SDS011;70150;45.582;10.178;2023-06-04T05:51:19;7.25;;;3.83;;
80758;SDS011;70150;45.582;10.178;2023-06-04T05:53:45;11.70;;;3.78;;
80758;SDS011;70150;45.582;10.178;2023-06-04T05:56:11;6.60;;;3.90;;
80758;SDS011;70150;45.582;10.178;2023-06-04T05:58:36;7.80;;;4.55;;
80758;SDS011;70150;45.582;10.178;2023-06-04T06:01:02;7.20;;;4.60;;
80758;SDS011;70150;45.582;10.178;2023-06-04T06:03:28;7.57;;;4.15;;
80758;SDS011;70150;45.582;10.178;2023-06-04T06:05:54;7.43;;;4.00;;
80758;SDS011;70150;45.582;10.178;2023-06-04T06:08:22;6.95;;;4.53;;
80758;SDS011;70150;45.582;10.178;2023-06-04T06:10:48;7.80;;;4.20;;
80758;SDS011;70150;45.582;10.178;2023-06-04T06:13:16;7.68;;;4.10;;
80758;SDS011;70150;45.582;10.178;2023-06-04T06:15:42;5.28;;;3.90;;
80758;SDS011;70150;45.582;10.178;2023-06-04T06:18:07;6.90;;;4.20;;
80758;SDS011;70150;45.582;10.178;2023-06-04T06:20:34;5.47;;;3.97;;
80758;SDS011;70150;45.582;10.178;2023-06-04T06:25:31;5.47;;;3.92;;
80758;SDS011;70150;45.582;10.178;2023-06-04T06:27:57;7.45;;;4.05;;
80758;SDS011;70150;45.582;10.178;2023-06-04T06:30:22;7.32;;;4.25;;
80758;SDS011;70150;45.582;10.178;2023-06-04T06:32:48;6.75;;;3.70;;
80758;SDS011;70150;45.582;10.178;2023-06-04T06:35:15;6.72;;;4.20;;
80758;SDS011;70150;45.582;10.178;2023-06-04T06:37:41;6.22;;;3.75;;
80758;SDS011;70150;45.582;10.178;2023-06-04T06:40:08;6.22;;;4.05;;
80758;SDS011;70150;45.582;10.178;2023-06-04T06:42:37;5.90;;;4.32;;
80758;SDS011;70150;45.582;10.178;2023-06-04T06:45:03;6.78;;;4.60;;
80758;SDS011;70150;45.582;10.178;2023-06-04T06:47:29;10.38;;;5.40;;
80758;SDS011;70150;45.582;10.178;2023-06-04T06:49:54;7.80;;;5.55;;
80758;SDS011;70150;45.582;10.178;2023-06-04T06:52:20;9.15;;;5.03;;
80758;SDS011;70150;45.582;10.178;2023-06-04T06:54:46;8.15;;;4.32;;
80758;SDS011;70150;45.582;10.178;2023-06-04T06:57:14;9.32;;;4.68;;
80758;SDS011;70150;45.582;10.178;2023-06-04T06:59:40;6.50;;;4.70;;
80758;SDS011;70150;45.582;10.178;2023-06-04T07:02:08;7.65;;;4.53;;
80758;SDS011;70150;45.582;10.178;2023-06-04T07:04:33;6.82;;;4.65;;
80758;SDS011;70150;45.582;10.178;2023-06-04T07:07:00;7.35;;;4.65;;
80758;SDS011;70150;45.582;10.178;2023-06-04T07:09:26;10.73;;;5.18;;
80758;SDS011;70150;45.582;10.178;2023-06-04T07:11:51;8.13;;;4.80;;
80758;SDS011;70150;45.582;10.178;2023-06-04T07:14:17;6.57;;;4.50;;
80758;SDS011;70150;45.582;10.178;2023-06-04T07:16:42;7.10;;;4.55;;
80758;SDS011;70150;45.582;10.178;2023-06-04T07:19:08;8.60;;;4.60;;
80758;SDS011;70150;45.582;10.178;2023-06-04T07:21:33;8.43;;;4.40;;
80758;SDS011;70150;45.582;10.178;2023-06-04T07:23:59;7.25;;;4.40;;
80758;SDS011;70150;45.582;10.178;2023-06-04T07:26:25;6.85;;;4.38;;
80758;SDS011;70150;45.582;10.178;2023-06-04T07:28:51;5.90;;;3.97;;
80758;SDS011;70150;45.582;10.178;2023-06-04T07:31:17;7.13;;;4.90;;
80758;SDS011;70150;45.582;10.178;2023-06-04T07:33:42;8.40;;;4.72;;
80758;SDS011;70150;45.582;10.178;2023-06-04T07:36:12;6.47;;;4.75;;
80758;SDS011;70150;45.582;10.178;2023-06-04T07:38:39;8.30;;;4.95;;
80758;SDS011;70150;45.582;10.178;2023-06-04T07:41:05;6.38;;;4.70;;
80758;SDS011;70150;45.582;10.178;2023-06-04T07:43:32;6.35;;;4.60;;
80758;SDS011;70150;45.582;10.178;2023-06-04T07:46:01;7.32;;;4.60;;
80758;SDS011;70150;45.582;10.178;2023-06-04T07:48:27;7.57;;;4.80;;
80758;SDS011;70150;45.582;10.178;2023-06-04T07:50:56;9.02;;;5.32;;
80758;SDS011;70150;45.582;10.178;2023-06-04T07:53:22;7.75;;;5.38;;
80758;SDS011;70150;45.582;10.178;2023-06-04T07:55:50;7.53;;;4.80;;
80758;SDS011;70150;45.582;10.178;2023-06-04T07:58:16;5.72;;;4.72;;
80758;SDS011;70150;45.582;10.178;2023-06-04T08:00:42;7.57;;;4.63;;
80758;SDS011;70150;45.582;10.178;2023-06-04T08:03:08;5.85;;;3.97;;
80758;SDS011;70150;45.582;10.178;2023-06-04T08:05:34;5.70;;;3.83;;
80758;SDS011;70150;45.582;10.178;2023-06-04T08:07:59;5.90;;;4.30;;
80758;SDS011;70150;45.582;10.178;2023-06-04T08:10:25;6.35;;;4.22;;
80758;SDS011;70150;45.582;10.178;2023-06-04T08:12:51;6.45;;;3.60;;
80758;SDS011;70150;45.582;10.178;2023-06-04T08:15:16;5.35;;;3.70;;
80758;SDS011;70150;45.582;10.178;2023-06-04T08:17:42;8.95;;;3.63;;
80758;SDS011;70150;45.582;10.178;2023-06-04T08:20:08;6.55;;;3.58;;
80758;SDS011;70150;45.582;10.178;2023-06-04T08:22:34;5.05;;;3.58;;
80758;SDS011;70150;45.582;10.178;2023-06-04T08:25:00;4.70;;;3.50;;
80758;SDS011;70150;45.582;10.178;2023-06-04T08:27:30;5.78;;;3.88;;
80758;SDS011;70150;45.582;10.178;2023-06-04T08:29:56;7.88;;;3.78;;
80758;SDS011;70150;45.582;10.178;2023-06-04T08:32:22;6.45;;;3.45;;
80758;SDS011;70150;45.582;10.178;2023-06-04T08:34:48;6.90;;;3.22;;
80758;SDS011;70150;45.582;10.178;2023-06-04T08:37:15;4.57;;;3.45;;
80758;SDS011;70150;45.582;10.178;2023-06-04T08:39:41;5.18;;;3.90;;
80758;SDS011;70150;45.582;10.178;2023-06-04T08:42:07;6.75;;;3.88;;
80758;SDS011;70150;45.582;10.178;2023-06-04T08:47:07;5.40;;;4.00;;
80758;SDS011;70150;45.582;10.178;2023-06-04T08:49:34;8.02;;;4.30;;
80758;SDS011;70150;45.582;10.178;2023-06-04T08:52:01;4.85;;;4.13;;
80758;SDS011;70150;45.582;10.178;2023-06-04T08:54:28;6.18;;;4.25;;
80758;SDS011;70150;45.582;10.178;2023-06-04T08:56:56;8.05;;;4.25;;
80758;SDS011;70150;45.582;10.178;2023-06-04T08:59:23;5.97;;;3.80;;
80758;SDS011;70150;45.582;10.178;2023-06-04T09:01:51;6.47;;;4.18;;
80758;SDS011;70150;45.582;10.178;2023-06-04T09:04:19;8.63;;;4.78;;
80758;SDS011;70150;45.582;10.178;2023-06-04T09:06:48;6.68;;;4.53;;
80758;SDS011;70150;45.582;10.178;2023-06-04T09:09:14;7.03;;;4.70;;
80758;SDS011;70150;45.582;10.178;2023-06-04T09:14:14;7.00;;;4.78;;
80758;SDS011;70150;45.582;10.178;2023-06-04T09:16:43;23.08;;;11.60;;
80758;SDS011;70150;45.582;10.178;2023-06-04T09:19:11;9.32;;;5.45;;
80758;SDS011;70150;45.582;10.178;2023-06-04T09:24:08;8.10;;;4.88;;
80758;SDS011;70150;45.582;10.178;2023-06-04T09:26:34;13.63;;;7.28;;
80758;SDS011;70150;45.582;10.178;2023-06-04T09:29:00;8.70;;;5.43;;
80758;SDS011;70150;45.582;10.178;2023-06-04T09:31:25;7.75;;;4.97;;
80758;SDS011;70150;45.582;10.178;2023-06-04T09:33:51;8.40;;;5.43;;
80758;SDS011;70150;45.582;10.178;2023-06-04T09:36:17;8.32;;;5.22;;
80758;SDS011;70150;45.582;10.178;2023-06-04T09:38:43;10.02;;;6.13;;
80758;SDS011;70150;45.582;10.178;2023-06-04T09:41:11;7.88;;;4.95;;
80758;SDS011;70150;45.582;10.178;2023-06-04T09:43:37;6.82;;;4.90;;
80758;SDS011;70150;45.582;10.178;2023-06-04T09:48:35;9.80;;;5.55;;
80758;SDS011;70150;45.582;10.178;2023-06-04T09:53:37;7.90;;;5.30;;
80758;SDS011;70150;45.582;10.178;2023-06-04T09:56:03;10.18;;;4.97;;
80758;SDS011;70150;45.582;10.178;2023-06-04T09:58:31;11.52;;;5.63;;
80758;SDS011;70150;45.582;10.178;2023-06-04T10:00:58;7.57;;;5.40;;
80758;SDS011;70150;45.582;10.178;2023-06-04T10:03:27;6.72;;;4.40;;
80758;SDS011;70150;45.582;10.178;2023-06-04T10:05:58;8.48;;;5.00;;
80758;SDS011;70150;45.582;10.178;2023-06-04T10:08:25;8.82;;;4.97;;
80758;SDS011;70150;45.582;10.178;2023-06-04T10:10:55;9.95;;;5.70;;
80758;SDS011;70150;45.582;10.178;2023-06-04T10:13:23;10.00;;;5.03;;
80758;SDS011;70150;45.582;10.178;2023-06-04T10:15:51;10.38;;;5.50;;
80758;SDS011;70150;45.582;10.178;2023-06-04T10:18:18;12.32;;;6.72;;
80758;SDS011;70150;45.582;10.178;2023-06-04T10:20:47;10.10;;;6.30;;
80758;SDS011;70150;45.582;10.178;2023-06-04T10:23:13;9.13;;;6.25;;
80758;SDS011;70150;45.582;10.178;2023-06-04T10:25:39;9.68;;;6.07;;
80758;SDS011;70150;45.582;10.178;2023-06-04T10:28:05;10.18;;;6.13;;
80758;SDS011;70150;45.582;10.178;2023-06-04T10:30:30;11.52;;;6.60;;
80758;SDS011;70150;45.582;10.178;2023-06-04T10:32:57;10.00;;;7.25;;
80758;SDS011;70150;45.582;10.178;2023-06-04T10:38:03;9.25;;;6.95;;
80758;SDS011;70150;45.582;10.178;2023-06-04T10:40:32;11.07;;;7.20;;
80758;SDS011;70150;45.582;10.178;2023-06-04T10:43:03;10.88;;;7.07;;
80758;SDS011;70150;45.582;10.178;2023-06-04T10:45:31;9.38;;;6.93;;
80758;SDS011;70150;45.582;10.178;2023-06-04T10:50:27;10.25;;;6.30;;
80758;SDS011;70150;45.582;10.178;2023-06-04T10:52:55;11.45;;;7.30;;
80758;SDS011;70150;45.582;10.178;2023-06-04T10:55:23;10.32;;;7.20;;
80758;SDS011;70150;45.582;10.178;2023-06-04T10:57:52;9.77;;;6.97;;
80758;SDS011;70150;45.582;10.178;2023-06-04T11:00:18;9.68;;;6.97;;
80758;SDS011;70150;45.582;10.178;2023-06-04T11:05:15;24.17;;;17.98;;
80758;SDS011;70150;45.582;10.178;2023-06-04T11:07:41;23.85;;;15.88;;
80758;SDS011;70150;45.582;10.178;2023-06-04T11:10:10;12.38;;;7.45;;
80758;SDS011;70150;45.582;10.178;2023-06-04T11:15:08;9.85;;;6.60;;
80758;SDS011;70150;45.582;10.178;2023-06-04T11:17:34;9.73;;;6.47;;
80758;SDS011;70150;45.582;10.178;2023-06-04T11:20:00;10.82;;;6.13;;
80758;SDS011;70150;45.582;10.178;2023-06-04T11:22:26;9.43;;;6.25;;
80758;SDS011;70150;45.582;10.178;2023-06-04T11:27:24;11.10;;;6.95;;
80758;SDS011;70150;45.582;10.178;2023-06-04T11:29:50;11.85;;;6.30;;
80758;SDS011;70150;45.582;10.178;2023-06-04T11:34:46;10.93;;;6.50;;
80758;SDS011;70150;45.582;10.178;2023-06-04T11:37:12;14.52;;;6.82;;
80758;SDS011;70150;45.582;10.178;2023-06-04T11:39:38;9.77;;;6.65;;
80758;SDS011;70150;45.582;10.178;2023-06-04T11:42:05;9.55;;;5.95;;
80758;SDS011;70150;45.582;10.178;2023-06-04T11:44:32;8.02;;;5.88;;
80758;SDS011;70150;45.582;10.178;2023-06-04T11:46:58;10.70;;;6.05;;
80758;SDS011;70150;45.582;10.178;2023-06-04T11:49:24;9.98;;;6.40;;
80758;SDS011;70150;45.582;10.178;2023-06-04T11:51:52;8.90;;;5.50;;
80758;SDS011;70150;45.582;10.178;2023-06-04T11:54:20;6.78;;;5.38;;
80758;SDS011;70150;45.582;10.178;2023-06-04T11:56:47;7.28;;;5.10;;
80758;SDS011;70150;45.582;10.178;2023-06-04T11:59:15;6.93;;;4.72;;
80758;SDS011;70150;45.582;10.178;2023-06-04T12:01:42;6.20;;;4.65;;
80758;SDS011;70150;45.582;10.178;2023-06-04T12:06:49;7.10;;;4.80;;
80758;SDS011;70150;45.582;10.178;2023-06-04T12:11:49;6.97;;;4.75;;
80758;SDS011;70150;45.582;10.178;2023-06-04T12:14:16;7.72;;;4.75;;
80758;SDS011;70150;45.582;10.178;2023-06-04T12:19:17;8.23;;;4.80;;
80758;SDS011;70150;45.582;10.178;2023-06-04T12:21:43;7.30;;;5.30;;
80758;SDS011;70150;45.582;10.178;2023-06-04T12:24:09;8.23;;;5.40;;
80758;SDS011;70150;45.582;10.178;2023-06-04T12:26:36;9.55;;;5.43;;
80758;SDS011;70150;45.582;10.178;2023-06-04T12:31:35;8.25;;;5.50;;
80758;SDS011;70150;45.582;10.178;2023-06-04T12:36:27;7.80;;;5.32;;
80758;SDS011;70150;45.582;10.178;2023-06-04T12:38:55;7.93;;;5.95;;
80758;SDS011;70150;45.582;10.178;2023-06-04T12:41:24;9.77;;;5.95;;
80758;SDS011;70150;45.582;10.178;2023-06-04T12:43:51;6.20;;;4.80;;
80758;SDS011;70150;45.582;10.178;2023-06-04T12:46:17;7.10;;;5.53;;
80758;SDS011;70150;45.582;10.178;2023-06-04T12:48:42;9.68;;;6.97;;
80758;SDS011;70150;45.582;10.178;2023-06-04T12:51:08;7.97;;;5.97;;
80758;SDS011;70150;45.582;10.178;2023-06-04T12:53:38;7.93;;;5.05;;
80758;SDS011;70150;45.582;10.178;2023-06-04T12:56:04;6.93;;;4.70;;
80758;SDS011;70150;45.582;10.178;2023-06-04T12:58:30;7.72;;;4.85;;
80758;SDS011;70150;45.582;10.178;2023-06-04T13:00:56;8.27;;;5.00;;
80758;SDS011;70150;45.582;10.178;2023-06-04T13:03:21;9.68;;;4.90;;
80758;SDS011;70150;45.582;10.178;2023-06-04T13:05:48;8.63;;;4.47;;
80758;SDS011;70150;45.582;10.178;2023-06-04T13:08:14;6.53;;;4.30;;
80758;SDS011;70150;45.582;10.178;2023-06-04T13:10:40;7.72;;;4.47;;
80758;SDS011;70150;45.582;10.178;2023-06-04T13:13:06;7.05;;;4.35;;
80758;SDS011;70150;45.582;10.178;2023-06-04T13:15:31;6.03;;;3.95;;
80758;SDS011;70150;45.582;10.178;2023-06-04T13:17:57;6.18;;;4.45;;
80758;SDS011;70150;45.582;10.178;2023-06-04T13:20:22;6.65;;;4.38;;
80758;SDS011;70150;45.582;10.178;2023-06-04T13:22:48;5.47;;;3.80;;
80758;SDS011;70150;45.582;10.178;2023-06-04T13:25:14;6.45;;;4.63;;
80758;SDS011;70150;45.582;10.178;2023-06-04T13:27:40;6.32;;;3.83;;
80758;SDS011;70150;45.582;10.178;2023-06-04T13:30:06;6.25;;;3.97;;
80758;SDS011;70150;45.582;10.178;2023-06-04T13:32:32;6.22;;;3.72;;
80758;SDS011;70150;45.582;10.178;2023-06-04T13:34:57;5.85;;;4.03;;
80758;SDS011;70150;45.582;10.178;2023-06-04T13:37:23;6.25;;;4.13;;
80758;SDS011;70150;45.582;10.178;2023-06-04T13:39:49;6.28;;;4.05;;
80758;SDS011;70150;45.582;10.178;2023-06-04T13:42:14;6.15;;;4.00;;
80758;SDS011;70150;45.582;10.178;2023-06-04T13:44:40;6.28;;;3.67;;
80758;SDS011;70150;45.582;10.178;2023-06-04T13:47:05;5.55;;;4.55;;
80758;SDS011;70150;45.582;10.178;2023-06-04T13:49:33;7.68;;;4.50;;
80758;SDS011;70150;45.582;10.178;2023-06-04T13:52:01;6.28;;;4.35;;
80758;SDS011;70150;45.582;10.178;2023-06-04T13:54:26;7.07;;;4.10;;
80758;SDS011;70150;45.582;10.178;2023-06-04T13:56:52;6.65;;;4.13;;
80758;SDS011;70150;45.582;10.178;2023-06-04T13:59:17;7.38;;;3.75;;
80758;SDS011;70150;45.582;10.178;2023-06-04T14:01:43;6.43;;;3.80;;
80758;SDS011;70150;45.582;10.178;2023-06-04T14:04:11;6.70;;;3.85;;
80758;SDS011;70150;45.582;10.178;2023-06-04T14:06:37;7.72;;;4.07;;
80758;SDS011;70150;45.582;10.178;2023-06-04T14:09:03;6.72;;;4.13;;
80758;SDS011;70150;45.582;10.178;2023-06-04T14:11:30;6.70;;;3.50;;
80758;SDS011;70150;45.582;10.178;2023-06-04T14:13:57;6.68;;;3.90;;
80758;SDS011;70150;45.582;10.178;2023-06-04T14:16:23;4.90;;;3.92;;
80758;SDS011;70150;45.582;10.178;2023-06-04T14:18:48;7.13;;;4.00;;
80758;SDS011;70150;45.582;10.178;2023-06-04T14:21:14;5.28;;;3.78;;
80758;SDS011;70150;45.582;10.178;2023-06-04T14:23:40;5.93;;;4.10;;
80758;SDS011;70150;45.582;10.178;2023-06-04T14:26:06;5.03;;;3.50;;
80758;SDS011;70150;45.582;10.178;2023-06-04T14:28:31;6.90;;;4.28;;
80758;SDS011;70150;45.582;10.178;2023-06-04T14:30:57;4.47;;;3.47;;
80758;SDS011;70150;45.582;10.178;2023-06-04T14:33:23;6.30;;;3.67;;
80758;SDS011;70150;45.582;10.178;2023-06-04T14:35:49;5.53;;;3.55;;
80758;SDS011;70150;45.582;10.178;2023-06-04T14:38:16;6.20;;;4.00;;
80758;SDS011;70150;45.582;10.178;2023-06-04T14:40:42;5.20;;;3.60;;
80758;SDS011;70150;45.582;10.178;2023-06-04T14:43:10;5.07;;;3.75;;
80758;SDS011;70150;45.582;10.178;2023-06-04T14:45:36;5.13;;;3.70;;
80758;SDS011;70150;45.582;10.178;2023-06-04T14:48:03;6.45;;;3.80;;
80758;SDS011;70150;45.582;10.178;2023-06-04T14:50:29;8.20;;;4.03;;
80758;SDS011;70150;45.582;10.178;2023-06-04T14:52:58;6.00;;;3.75;;
80758;SDS011;70150;45.582;10.178;2023-06-04T14:55:24;4.35;;;3.60;;
80758;SDS011;70150;45.582;10.178;2023-06-04T14:57:50;7.78;;;4.20;;
80758;SDS011;70150;45.582;10.178;2023-06-04T15:00:16;7.25;;;3.95;;
80758;SDS011;70150;45.582;10.178;2023-06-04T15:02:42;5.38;;;4.00;;
80758;SDS011;70150;45.582;10.178;2023-06-04T15:05:07;9.13;;;4.63;;
80758;SDS011;70150;45.582;10.178;2023-06-04T15:07:33;7.65;;;4.88;;
80758;SDS011;70150;45.582;10.178;2023-06-04T15:09:59;7.13;;;4.43;;
80758;SDS011;70150;45.582;10.178;2023-06-04T15:12:29;8.00;;;4.80;;
80758;SDS011;70150;45.582;10.178;2023-06-04T15:14:55;8.80;;;5.05;;
80758;SDS011;70150;45.582;10.178;2023-06-04T15:17:20;5.97;;;4.60;;
80758;SDS011;70150;45.582;10.178;2023-06-04T15:19:46;10.43;;;5.05;;